Stidia — 7THB — position and weather

sailwx.info

Track history (hours):
 
Tides and Currents Weather Stations Pressure Air Temp Water Temp Dewpoint Dewpoint Depression Visibility Wind Speed Wind Dir Waves Ship Positions

Stidia

Last reported at 2018-Feb-12 12:21 UTC. Time now 2018-Feb-21 11:03 UTC.
Position N 37°21' E 000°11'.
Warning: this ship's position is 8 days out of date.

Length 120 m; draft 7 m.

Type: Ship. MMSI: 605086011.

Date/timePositionNaut miles runAvg speedWind from/ knotsBaromVisibWave heightAir tempDewpointWater temp
2018-Feb-12 12:21N 37°21' E 000°11'511.3
2018-Feb-12 11:56N 37°26' E 000°12'23011.7
2018-Feb-11 16:12N 40°55' E 002°16'311.2
2018-Feb-11 15:57N 40°57' E 002°18'511.3
2018-Feb-11 15:29N 41°01' E 002°22'511.5
2018-Feb-11 15:00N 41°05' E 002°27'611.4
2018-Feb-11 14:30N 41°09' E 002°32'711.5
2018-Feb-11 13:56N 41°14' E 002°38'811.6
2018-Feb-11 13:18N 41°20' E 002°44'611.7
2018-Feb-11 12:49N 41°25' E 002°49'12311.1
2018-Feb-11 01:41N 42°59' E 004°35'211.0
2018-Feb-11 01:30N 42°60' E 004°37'610.3
2018-Feb-11 00:54N 43°00' E 004°46'4 9.9
2018-Feb-11 00:30N 43°01' E 004°51'6 9.9
2018-Feb-10 23:56N 43°01' E 004°59'9 9.6
2018-Feb-10 22:59N 43°02' E 005°11'7610.5
2018-Feb-10 15:45N 43°09' E 006°55'311.9
2018-Feb-10 15:29N 43°11' E 006°59'612.0
2018-Feb-10 15:00N 43°14' E 007°06'612.2
2018-Feb-10 14:30N 43°18' E 007°12'612.1
2018-Feb-10 14:00N 43°22' E 007°19'612.2
2018-Feb-10 13:30N 43°25' E 007°25'4812.9
2018-Feb-10 09:46N 43°54' E 008°18'413.6
2018-Feb-10 09:30N 43°57' E 008°22'713.1
2018-Feb-10 09:00N 44°02' E 008°28'713.4
2018-Feb-10 08:30N 44°07' E 008°35'612.5
2018-Feb-10 08:00N 44°11' E 008°41'612.3
2018-Feb-10 07:30N 44°16' E 008°46'611.4
2018-Feb-10 07:00N 44°20' E 008°51'4 8.1
2018-Feb-10 06:30N 44°24' E 008°54'1 2.8
2018-Feb-10 06:00N 44°24' E 008°53'0 0.0
2018-Feb-10 05:30N 44°24' E 008°53'0 0.0
2018-Feb-10 05:00N 44°24' E 008°53'0 0.0
2018-Feb-10 04:30N 44°24' E 008°53'0 0.0
2018-Feb-10 04:00N 44°24' E 008°53'0 0.0
2018-Feb-10 03:30N 44°24' E 008°53'0 0.0
2018-Feb-10 03:00N 44°24' E 008°53'0 0.0
2018-Feb-10 02:30N 44°24' E 008°53'0 0.0
2018-Feb-10 02:00N 44°24' E 008°53'0 0.0
2018-Feb-10 01:30N 44°24' E 008°53'0 0.0
2018-Feb-10 01:00N 44°24' E 008°53'0 0.0
2018-Feb-10 00:30N 44°24' E 008°53'0 0.0
2018-Feb-10 00:00N 44°24' E 008°53'0 0.0
2018-Feb-09 23:30N 44°24' E 008°53'0 0.0
2018-Feb-09 23:00N 44°24' E 008°53'0 0.0
2018-Feb-09 22:45N 44°24' E 008°53'5 0.1
2018-Feb-08 07:00N 44°21' E 008°58'2412.0
2018-Feb-08 05:00N 43°59' E 009°12'1212.4
2018-Feb-08 04:00N 43°47' E 009°18'612.3
2018-Feb-08 03:30N 43°42' E 009°21'1711.5
2018-Feb-08 02:01N 43°25' E 009°28'510.7
2018-Feb-08 01:30N 43°20' E 009°31'510.9
2018-Feb-08 01:01N 43°15' E 009°33'610.8
2018-Feb-08 00:30N 43°10' E 009°36'611.3
2018-Feb-08 00:00N 43°04' E 009°37'611.4
2018-Feb-07 23:28N 42°59' E 009°39'511.3
2018-Feb-07 23:00N 42°54' E 009°42'1511.1
2018-Feb-07 21:38N 42°39' E 009°48'111.5
2018-Feb-07 21:31N 42°38' E 009°48'29910.9
2018-Feb-06 18:05N 39°19' E 014°43'210.8
2018-Feb-06 17:52N 39°17' E 014°46'4112.0
2018-Feb-06 14:28N 38°51' E 015°26'612.8
2018-Feb-06 13:59N 38°46' E 015°29'713.3
2018-Feb-06 13:29N 38°39' E 015°33'613.2
2018-Feb-06 13:00N 38°34' E 015°36'612.9
2018-Feb-06 12:30N 38°28' E 015°39'812.4
2018-Feb-06 11:53N 38°20' E 015°43'511.3
2018-Feb-06 11:25N 38°15' E 015°41'410.5
2018-Feb-06 11:00N 38°12' E 015°37'712.7
2018-Feb-06 10:28N 38°06' E 015°36'613.1
2018-Feb-06 09:59N 37°59' E 015°36'613.2
2018-Feb-06 09:30N 37°54' E 015°41'713.7
2018-Feb-06 09:00N 37°52' E 015°49'713.6
2018-Feb-06 08:30N 37°50' E 015°57'37511.3
2018-Feb-04 23:23N 37°09' E 023°46'2013.0
2018-Feb-04 21:51N 37°25' E 023°60'712.8
2018-Feb-04 21:18N 37°32' E 024°04'512.5
2018-Feb-04 20:56N 37°35' E 024°07'1212.6
2018-Feb-04 20:00N 37°45' E 024°17'712.5
2018-Feb-04 19:25N 37°49' E 024°24'812.6
2018-Feb-04 18:47N 37°54' E 024°32'9010.2
2018-Feb-04 10:01N 39°20' E 025°03'183 7.4
2018-Feb-03 09:04N 40°53' E 028°30'111.0
2018-Feb-03 09:00N 40°53' E 028°31'1011.1
2018-Feb-03 08:07N 40°55' E 028°44'110.5
2018-Feb-03 08:00N 40°55' E 028°46'7 0.8
2018-Feb-03 00:00N 40°57' E 028°54'1 1.1
2018-Feb-02 22:42N 40°58' E 028°55'1 4.0
2018-Feb-02 22:30N 40°58' E 028°57'  
Track history (hours):
 
Tides and Currents Weather Stations Pressure Air Temp Water Temp Dewpoint Dewpoint Depression Visibility Wind Speed Wind Dir Waves Ship Positions

Stidia

Last reported at 2018-Feb-12 12:21 UTC. Time now 2018-Feb-21 11:03 UTC.
Position N 37°21' E 000°11'.
Warning: this ship's position is 8 days out of date.

Length 120 m; draft 7 m.

Type: Ship. MMSI: 605086011.

Date/timePositionNaut miles runAvg speedWind from/ knotsBaromVisibWave heightAir tempDewpointWater temp
2018-Feb-12 12:21N 37°21' E 000°11'511.3
2018-Feb-12 11:56N 37°26' E 000°12'23011.7
2018-Feb-11 16:12N 40°55' E 002°16'311.2
2018-Feb-11 15:57N 40°57' E 002°18'511.3
2018-Feb-11 15:29N 41°01' E 002°22'511.5
2018-Feb-11 15:00N 41°05' E 002°27'611.4
2018-Feb-11 14:30N 41°09' E 002°32'711.5
2018-Feb-11 13:56N 41°14' E 002°38'811.6
2018-Feb-11 13:18N 41°20' E 002°44'611.7
2018-Feb-11 12:49N 41°25' E 002°49'12311.1
2018-Feb-11 01:41N 42°59' E 004°35'211.0
2018-Feb-11 01:30N 42°60' E 004°37'610.3
2018-Feb-11 00:54N 43°00' E 004°46'4 9.9
2018-Feb-11 00:30N 43°01' E 004°51'6 9.9
2018-Feb-10 23:56N 43°01' E 004°59'9 9.6
2018-Feb-10 22:59N 43°02' E 005°11'7610.5
2018-Feb-10 15:45N 43°09' E 006°55'311.9
2018-Feb-10 15:29N 43°11' E 006°59'612.0
2018-Feb-10 15:00N 43°14' E 007°06'612.2
2018-Feb-10 14:30N 43°18' E 007°12'612.1
2018-Feb-10 14:00N 43°22' E 007°19'612.2
2018-Feb-10 13:30N 43°25' E 007°25'4812.9
2018-Feb-10 09:46N 43°54' E 008°18'413.6
2018-Feb-10 09:30N 43°57' E 008°22'713.1
2018-Feb-10 09:00N 44°02' E 008°28'713.4
2018-Feb-10 08:30N 44°07' E 008°35'612.5
2018-Feb-10 08:00N 44°11' E 008°41'612.3
2018-Feb-10 07:30N 44°16' E 008°46'611.4
2018-Feb-10 07:00N 44°20' E 008°51'4 8.1
2018-Feb-10 06:30N 44°24' E 008°54'1 2.8
2018-Feb-10 06:00N 44°24' E 008°53'0 0.0
2018-Feb-10 05:30N 44°24' E 008°53'0 0.0
2018-Feb-10 05:00N 44°24' E 008°53'0 0.0
2018-Feb-10 04:30N 44°24' E 008°53'0 0.0
2018-Feb-10 04:00N 44°24' E 008°53'0 0.0
2018-Feb-10 03:30N 44°24' E 008°53'0 0.0
2018-Feb-10 03:00N 44°24' E 008°53'0 0.0
2018-Feb-10 02:30N 44°24' E 008°53'0 0.0
2018-Feb-10 02:00N 44°24' E 008°53'0 0.0
2018-Feb-10 01:30N 44°24' E 008°53'0 0.0
2018-Feb-10 01:00N 44°24' E 008°53'0 0.0
2018-Feb-10 00:30N 44°24' E 008°53'0 0.0
2018-Feb-10 00:00N 44°24' E 008°53'0 0.0
2018-Feb-09 23:30N 44°24' E 008°53'0 0.0
2018-Feb-09 23:00N 44°24' E 008°53'0 0.0
2018-Feb-09 22:45N 44°24' E 008°53'5 0.1
2018-Feb-08 07:00N 44°21' E 008°58'2412.0
2018-Feb-08 05:00N 43°59' E 009°12'1212.4
2018-Feb-08 04:00N 43°47' E 009°18'612.3
2018-Feb-08 03:30N 43°42' E 009°21'1711.5
2018-Feb-08 02:01N 43°25' E 009°28'510.7
2018-Feb-08 01:30N 43°20' E 009°31'510.9
2018-Feb-08 01:01N 43°15' E 009°33'610.8
2018-Feb-08 00:30N 43°10' E 009°36'611.3
2018-Feb-08 00:00N 43°04' E 009°37'611.4
2018-Feb-07 23:28N 42°59' E 009°39'511.3
2018-Feb-07 23:00N 42°54' E 009°42'1511.1
2018-Feb-07 21:38N 42°39' E 009°48'111.5
2018-Feb-07 21:31N 42°38' E 009°48'29910.9
2018-Feb-06 18:05N 39°19' E 014°43'210.8
2018-Feb-06 17:52N 39°17' E 014°46'4112.0
2018-Feb-06 14:28N 38°51' E 015°26'612.8
2018-Feb-06 13:59N 38°46' E 015°29'713.3
2018-Feb-06 13:29N 38°39' E 015°33'613.2
2018-Feb-06 13:00N 38°34' E 015°36'612.9
2018-Feb-06 12:30N 38°28' E 015°39'812.4
2018-Feb-06 11:53N 38°20' E 015°43'511.3
2018-Feb-06 11:25N 38°15' E 015°41'410.5
2018-Feb-06 11:00N 38°12' E 015°37'712.7
2018-Feb-06 10:28N 38°06' E 015°36'613.1
2018-Feb-06 09:59N 37°59' E 015°36'613.2
2018-Feb-06 09:30N 37°54' E 015°41'713.7
2018-Feb-06 09:00N 37°52' E 015°49'713.6
2018-Feb-06 08:30N 37°50' E 015°57'37511.3
2018-Feb-04 23:23N 37°09' E 023°46'2013.0
2018-Feb-04 21:51N 37°25' E 023°60'712.8
2018-Feb-04 21:18N 37°32' E 024°04'512.5
2018-Feb-04 20:56N 37°35' E 024°07'1212.6
2018-Feb-04 20:00N 37°45' E 024°17'712.5
2018-Feb-04 19:25N 37°49' E 024°24'812.6
2018-Feb-04 18:47N 37°54' E 024°32'9010.2
2018-Feb-04 10:01N 39°20' E 025°03'183 7.4
2018-Feb-03 09:04N 40°53' E 028°30'111.0
2018-Feb-03 09:00N 40°53' E 028°31'1011.1
2018-Feb-03 08:07N 40°55' E 028°44'110.5
2018-Feb-03 08:00N 40°55' E 028°46'7 0.8
2018-Feb-03 00:00N 40°57' E 028°54'1 1.1
2018-Feb-02 22:42N 40°58' E 028°55'1 4.0
2018-Feb-02 22:30N 40°58' E 028°57'  

Dump ship's entire track history